Time;durP1;ratioP1;P1;durP2;ratioP2;P2;SDS_P1;SDS_P2;PMS_P1;PMS_P2;Temp;Humidity;BMP_temperature;BMP_pressure;BME280_temperature;BME280_humidity;BME280_pressure;Samples;Min_cycle;Max_cycle;Signal;HPM_P1;HPM_P2
2021/11/20 00:00:39;;;;;;;0.00;0.00;;;9.20;95.60;;;;;;5055975;28;20056;-75
2021/11/20 00:03:05;;;;;;;0.00;0.00;;;9.20;95.70;;;;;;5055663;28;20099;-76
2021/11/20 00:05:36;;;;;;;0.00;0.00;;;9.20;95.60;;;;;;5055109;28;20463;-75
2021/11/20 00:08:02;;;;;;;0.00;0.00;;;9.30;95.60;;;;;;5053969;28;20029;-75
2021/11/20 00:10:30;;;;;;;0.00;0.00;;;9.30;95.70;;;;;;5055205;28;20033;-76
2021/11/20 00:12:56;;;;;;;0.00;0.00;;;9.30;95.50;;;;;;5054579;28;20108;-75
2021/11/20 00:15:29;;;;;;;0.00;0.00;;;9.30;95.70;;;;;;5054306;28;20413;-76
2021/11/20 00:17:56;;;;;;;0.00;0.00;;;9.30;95.70;;;;;;5055691;28;20044;-76
2021/11/20 00:20:23;;;;;;;0.00;0.00;;;9.30;95.50;;;;;;5055245;28;20021;-76
2021/11/20 00:22:51;;;;;;;0.00;0.00;;;9.30;95.50;;;;;;5054934;28;20025;-75
2021/11/20 00:25:41;;;;;;;0.00;0.00;;;9.30;95.50;;;;;;5055169;28;20074;-76
2021/11/20 00:28:07;;;;;;;0.00;0.00;;;9.30;95.50;;;;;;5055805;28;20378;-75
2021/11/20 00:30:41;;;;;;;0.00;0.00;;;9.30;95.60;;;;;;5055882;28;20025;-76
2021/11/20 00:33:10;;;;;;;0.00;0.00;;;9.30;95.60;;;;;;5055011;28;20024;-76
2021/11/20 00:35:40;;;;;;;0.00;0.00;;;9.30;95.50;;;;;;5055034;28;20053;-76
2021/11/20 00:38:09;;;;;;;0.00;0.00;;;9.30;95.40;;;;;;5053724;28;20040;-76
2021/11/20 00:40:40;;;;;;;0.00;0.00;;;9.20;95.50;;;;;;5054860;28;20040;-75
2021/11/20 00:43:05;;;;;;;0.00;0.00;;;9.30;95.50;;;;;;5055974;28;20490;-76
2021/11/20 00:49:50;;;;;;;0.00;0.00;;;9.20;95.70;;;;;;5051392;28;20080;-75
2021/11/20 00:52:17;;;;;;;0.00;0.00;;;9.20;95.90;;;;;;5051024;28;20091;-75
2021/11/20 00:54:43;;;;;;;0.00;0.00;;;9.20;96.00;;;;;;5054831;28;20021;-76
2021/11/20 00:57:10;;;;;;;0.00;0.00;;;9.20;96.30;;;;;;5054972;28;20051;-75
2021/11/20 00:59:36;;;;;;;0.00;0.00;;;9.20;96.10;;;;;;5055580;28;20029;-75
2021/11/20 01:02:04;;;;;;;0.00;0.00;;;9.20;96.00;;;;;;5053739;28;20417;-75
2021/11/20 01:04:31;;;;;;;0.00;0.00;;;9.30;95.80;;;;;;5052187;28;20028;-76
2021/11/20 01:06:58;;;;;;;0.00;0.00;;;9.20;95.80;;;;;;5053259;28;20036;-75
2021/11/20 01:09:34;;;;;;;0.00;0.00;;;9.30;95.90;;;;;;5054567;28;20454;-75
2021/11/20 01:12:08;;;;;;;0.00;0.00;;;9.30;95.70;;;;;;5054903;28;20033;-76
2021/11/20 01:14:35;;;;;;;0.00;0.00;;;9.20;95.80;;;;;;5055095;28;20036;-76
2021/11/20 01:17:04;;;;;;;0.00;0.00;;;9.20;95.80;;;;;;5054484;28;20032;-75
2021/11/20 01:19:30;;;;;;;0.00;0.00;;;9.30;95.80;;;;;;5053859;28;20044;-75
2021/11/20 01:21:58;;;;;;;0.00;0.00;;;9.20;95.90;;;;;;5054117;28;20378;-75
2021/11/20 01:24:24;;;;;;;0.00;0.00;;;9.20;95.90;;;;;;5053635;28;20536;-75
2021/11/20 01:26:53;;;;;;;0.00;0.00;;;9.20;95.90;;;;;;5054517;28;20036;-75
2021/11/20 01:29:20;;;;;;;0.00;0.00;;;9.20;95.90;;;;;;5054755;28;20482;-76
2021/11/20 01:31:50;;;;;;;0.00;0.00;;;9.20;96.00;;;;;;5054463;28;20033;-75
2021/11/20 01:34:17;;;;;;;0.00;0.00;;;9.20;96.10;;;;;;5053884;28;20452;-76
2021/11/20 01:36:44;;;;;;;0.00;0.00;;;9.20;96.10;;;;;;5053381;28;20049;-75
2021/11/20 01:39:14;;;;;;;0.00;0.00;;;9.20;96.00;;;;;;5053771;28;20021;-76
2021/11/20 01:41:42;;;;;;;0.00;0.00;;;9.20;96.20;;;;;;5053676;28;20049;-76
2021/11/20 01:44:18;;;;;;;0.00;0.00;;;9.20;96.20;;;;;;5054401;28;20492;-76
2021/11/20 01:46:49;;;;;;;0.00;0.00;;;9.20;96.20;;;;;;5053901;28;20107;-75
2021/11/20 01:49:29;;;;;;;0.00;0.00;;;9.20;96.40;;;;;;5053179;28;20450;-75
2021/11/20 01:52:02;;;;;;;0.00;0.00;;;9.20;96.40;;;;;;5053351;28;20108;-76
2021/11/20 01:54:28;;;;;;;0.00;0.00;;;9.20;96.40;;;;;;5053480;28;20028;-76
2021/11/20 01:57:11;;;;;;;0.00;0.00;;;9.10;96.40;;;;;;5053683;28;20151;-76
2021/11/20 02:00:06;;;;;;;0.00;0.00;;;9.10;96.30;;;;;;5053910;28;20021;-76
2021/11/20 02:02:38;;;;;;;0.00;0.00;;;9.10;96.50;;;;;;5053905;28;20064;-75
2021/11/20 02:05:28;;;;;;;0.00;0.00;;;9.10;96.70;;;;;;5053387;28;20029;-75
2021/11/20 02:08:26;;;;;;;0.00;0.00;;;9.10;96.70;;;;;;5053173;28;20074;-76
2021/11/20 02:10:59;;;;;;;0.00;0.00;;;9.10;96.80;;;;;;5052751;28;20514;-75
2021/11/20 02:13:28;;;;;;;0.00;0.00;;;9.10;97.00;;;;;;5053314;28;20021;-75
2021/11/20 02:16:05;;;;;;;0.00;0.00;;;9.10;97.30;;;;;;5054139;28;20374;-76
2021/11/20 02:18:36;;;;;;;0.00;0.00;;;9.10;97.30;;;;;;5052477;28;20029;-75
2021/11/20 02:21:16;;;;;;;0.00;0.00;;;9.10;97.20;;;;;;5053359;28;20063;-76
2021/11/20 02:23:42;;;;;;;0.00;0.00;;;9.10;97.40;;;;;;5052795;28;20029;-76
2021/11/20 02:26:07;;;;;;;0.00;0.00;;;9.10;97.30;;;;;;5052500;28;20051;-76
2021/11/20 02:28:34;;;;;;;0.00;0.00;;;9.10;97.40;;;;;;5052673;28;20035;-76
2021/11/20 02:31:01;;;;;;;0.00;0.00;;;9.10;97.30;;;;;;5053547;28;20044;-76
2021/11/20 02:33:30;;;;;;;0.00;0.00;;;9.10;97.40;;;;;;5052330;28;20029;-76
2021/11/20 02:36:05;;;;;;;0.00;0.00;;;9.20;97.50;;;;;;5052809;28;20518;-76
2021/11/20 02:38:44;;;;;;;0.00;0.00;;;9.20;97.60;;;;;;5052411;28;20029;-77
2021/11/20 02:41:16;;;;;;;0.00;0.00;;;9.20;97.70;;;;;;5052687;28;20025;-77
2021/11/20 02:43:47;;;;;;;0.00;0.00;;;9.30;97.70;;;;;;5052850;28;20029;-76
2021/11/20 02:46:16;;;;;;;0.00;0.00;;;9.30;97.70;;;;;;5051534;28;20025;-77
2021/11/20 02:48:42;;;;;;;0.00;0.00;;;9.30;97.70;;;;;;5053002;28;20107;-77
2021/11/20 02:51:12;;;;;;;0.00;0.00;;;9.30;97.70;;;;;;5053040;28;20435;-77
2021/11/20 02:53:41;;;;;;;0.00;0.00;;;9.30;97.60;;;;;;5052610;28;20036;-77
2021/11/20 02:56:10;;;;;;;0.00;0.00;;;9.40;97.60;;;;;;5052561;28;20035;-77
2021/11/20 02:58:36;;;;;;;0.00;0.00;;;9.40;98.00;;;;;;5052555;28;20116;-76
2021/11/20 03:01:08;;;;;;;0.00;0.00;;;9.40;97.70;;;;;;5052493;28;20471;-77
2021/11/20 03:03:34;;;;;;;0.00;0.00;;;9.40;97.70;;;;;;5052140;28;20494;-76
2021/11/20 03:06:00;;;;;;;0.00;0.00;;;9.50;97.70;;;;;;5053276;28;20057;-77
2021/11/20 03:08:26;;;;;;;0.00;0.00;;;9.50;97.80;;;;;;5052891;28;20106;-77
2021/11/20 03:10:52;;;;;;;0.00;0.00;;;9.50;97.80;;;;;;5052254;28;20462;-77
2021/11/20 03:13:18;;;;;;;0.00;0.00;;;9.50;97.80;;;;;;5052532;28;20025;-77
2021/11/20 03:15:45;;;;;;;0.00;0.00;;;9.60;98.00;;;;;;5052588;28;20079;-76
2021/11/20 03:18:11;;;;;;;0.00;0.00;;;9.60;98.00;;;;;;5052469;28;20029;-76
2021/11/20 03:20:39;;;;;;;0.00;0.00;;;9.70;98.20;;;;;;5053225;28;20029;-76
2021/11/20 03:23:23;;;;;;;0.00;0.00;;;9.70;98.20;;;;;;5052883;28;20029;-77
2021/11/20 03:25:49;;;;;;;0.00;0.00;;;9.70;98.30;;;;;;5052527;28;20108;-76
2021/11/20 03:28:15;;;;;;;0.00;0.00;;;9.80;98.30;;;;;;5054224;28;20514;-77
2021/11/20 03:30:43;;;;;;;0.00;0.00;;;9.80;98.20;;;;;;5056184;28;20032;-77
2021/11/20 03:33:09;;;;;;;0.00;0.00;;;9.90;98.20;;;;;;5056109;28;20093;-77
2021/11/20 03:35:36;;;;;;;0.00;0.00;;;9.90;98.20;;;;;;5055356;28;20060;-77
2021/11/20 03:38:02;;;;;;;0.00;0.00;;;9.90;98.30;;;;;;5056801;28;20471;-77
2021/11/20 03:40:29;;;;;;;0.00;0.00;;;10.00;98.20;;;;;;5056570;28;20408;-77
2021/11/20 03:42:55;;;;;;;0.00;0.00;;;10.00;98.10;;;;;;5056567;28;20029;-78
2021/11/20 03:45:23;;;;;;;0.00;0.00;;;10.00;98.20;;;;;;5056020;28;20032;-78
2021/11/20 03:47:49;;;;;;;0.00;0.00;;;10.10;98.20;;;;;;5055889;28;20065;-78
2021/11/20 03:50:16;;;;;;;0.00;0.00;;;10.10;98.30;;;;;;5055901;28;20032;-77
2021/11/20 03:52:44;;;;;;;0.00;0.00;;;10.20;98.30;;;;;;5056621;28;20028;-78
2021/11/20 03:55:15;;;;;;;0.00;0.00;;;10.20;98.30;;;;;;5056712;28;20037;-77
2021/11/20 03:57:41;;;;;;;0.00;0.00;;;10.20;98.20;;;;;;5055442;28;20479;-77
2021/11/20 04:00:11;;;;;;;0.00;0.00;;;10.30;98.10;;;;;;5056147;28;20035;-78
2021/11/20 04:02:38;;;;;;;0.00;0.00;;;10.30;98.00;;;;;;5055555;28;20068;-78
2021/11/20 04:05:06;;;;;;;0.00;0.00;;;10.30;98.10;;;;;;5055443;28;20029;-78
2021/11/20 04:07:31;;;;;;;0.00;0.00;;;10.30;98.10;;;;;;5055382;28;20040;-77
2021/11/20 04:09:57;;;;;;;0.00;0.00;;;10.40;98.10;;;;;;5056272;28;20510;-78
2021/11/20 04:12:23;;;;;;;0.00;0.00;;;10.40;98.10;;;;;;5056357;28;20029;-78
2021/11/20 04:14:48;;;;;;;0.00;0.00;;;10.40;98.20;;;;;;5056195;28;20029;-77
2021/11/20 04:17:14;;;;;;;0.00;0.00;;;10.50;98.20;;;;;;5055747;28;20036;-78
2021/11/20 04:19:40;;;;;;;0.00;0.00;;;10.50;98.30;;;;;;5055715;28;20031;-78
2021/11/20 04:22:07;;;;;;;0.00;0.00;;;10.50;98.20;;;;;;5055478;28;20033;-78
2021/11/20 04:24:33;;;;;;;0.00;0.00;;;10.60;98.20;;;;;;5054835;28;20499;-78
2021/11/20 04:26:59;;;;;;;0.00;0.00;;;10.60;98.30;;;;;;5055826;28;20171;-77
2021/11/20 04:29:24;;;;;;;0.00;0.00;;;10.70;98.40;;;;;;5056395;28;20515;-78
2021/11/20 04:31:50;;;;;;;0.00;0.00;;;10.70;98.30;;;;;;5055915;28;20032;-78
2021/11/20 04:34:16;;;;;;;0.00;0.00;;;10.70;98.40;;;;;;5054178;28;20029;-77
2021/11/20 04:36:43;;;;;;;0.00;0.00;;;10.80;98.40;;;;;;5054534;28;20057;-78
2021/11/20 04:39:09;;;;;;;0.00;0.00;;;10.80;98.30;;;;;;5054042;28;20504;-77
2021/11/20 04:41:35;;;;;;;0.00;0.00;;;10.90;98.40;;;;;;5055280;28;20049;-78
2021/11/20 04:44:01;;;;;;;0.00;0.00;;;10.90;98.60;;;;;;5055442;28;20028;-77
2021/11/20 04:46:27;;;;;;;0.00;0.00;;;11.00;98.60;;;;;;5054031;28;20060;-78
2021/11/20 04:48:54;;;;;;;0.00;0.00;;;11.00;98.30;;;;;;5055439;28;20478;-77
2021/11/20 04:51:22;;;;;;;0.00;0.00;;;11.00;98.10;;;;;;5055885;28;20467;-78
2021/11/20 04:53:49;;;;;;;0.00;0.00;;;11.00;98.00;;;;;;5055704;28;20028;-77
2021/11/20 04:56:17;;;;;;;0.00;0.00;;;11.00;97.90;;;;;;5055651;28;20096;-78
2021/11/20 04:58:44;;;;;;;0.00;0.00;;;11.00;97.80;;;;;;5055644;28;20032;-78
2021/11/20 05:01:11;;;;;;;0.00;0.00;;;11.00;97.90;;;;;;5055463;28;20034;-78
2021/11/20 05:03:38;;;;;;;0.00;0.00;;;11.00;98.00;;;;;;5054148;28;20025;-78
2021/11/20 05:06:05;;;;;;;0.00;0.00;;;11.00;98.20;;;;;;5055548;28;20106;-78
2021/11/20 05:08:31;;;;;;;0.00;0.00;;;11.10;98.10;;;;;;5055288;28;20044;-78
2021/11/20 05:10:57;;;;;;;0.00;0.00;;;11.10;98.10;;;;;;5055421;28;20029;-78
2021/11/20 05:13:26;;;;;;;0.00;0.00;;;11.10;98.10;;;;;;5055210;28;20029;-76
2021/11/20 05:15:54;;;;;;;0.00;0.00;;;11.00;98.10;;;;;;5055367;28;20516;-77
2021/11/20 05:18:20;;;;;;;0.00;0.00;;;11.00;98.20;;;;;;5054903;28;20025;-77
2021/11/20 05:20:48;;;;;;;0.00;0.00;;;11.10;98.40;;;;;;5055089;28;20040;-77
2021/11/20 05:23:16;;;;;;;0.00;0.00;;;11.00;98.40;;;;;;5055069;28;20033;-77
2021/11/20 05:25:43;;;;;;;0.00;0.00;;;11.10;98.50;;;;;;5054765;28;20467;-77
2021/11/20 05:28:09;;;;;;;0.00;0.00;;;11.10;98.50;;;;;;5054951;28;20035;-77
2021/11/20 05:30:38;;;;;;;0.00;0.00;;;11.10;98.50;;;;;;5054827;28;20033;-77
2021/11/20 05:33:14;;;;;;;0.00;0.00;;;11.20;98.50;;;;;;5054449;28;20064;-77
2021/11/20 05:35:40;;;;;;;0.00;0.00;;;11.20;98.50;;;;;;5054520;28;20076;-78
2021/11/20 05:38:07;;;;;;;0.00;0.00;;;11.20;98.60;;;;;;5054015;28;20043;-76
2021/11/20 05:40:34;;;;;;;0.00;0.00;;;11.30;98.70;;;;;;5053061;28;20021;-77
2021/11/20 05:43:03;;;;;;;0.00;0.00;;;11.30;98.70;;;;;;5054098;28;20075;-77
2021/11/20 05:45:34;;;;;;;0.00;0.00;;;11.40;98.80;;;;;;5051901;28;20440;-77
2021/11/20 05:48:00;;;;;;;0.00;0.00;;;11.40;98.80;;;;;;5054461;28;20033;-78
2021/11/20 05:50:27;;;;;;;0.00;0.00;;;11.50;98.80;;;;;;5052999;28;20394;-78
2021/11/20 05:52:54;;;;;;;0.00;0.00;;;11.50;98.90;;;;;;5054480;28;20082;-78
2021/11/20 05:55:24;;;;;;;0.00;0.00;;;11.60;98.80;;;;;;5054717;28;20029;-78
2021/11/20 05:57:50;;;;;;;0.00;0.00;;;11.60;98.70;;;;;;5054527;28;20035;-78
2021/11/20 06:00:31;;;;;;;0.00;0.00;;;11.70;98.70;;;;;;5054628;28;20025;-78
2021/11/20 06:03:00;;;;;;;0.00;0.00;;;11.70;98.60;;;;;;5054368;28;20033;-78
2021/11/20 06:05:28;;;;;;;0.00;0.00;;;11.80;98.50;;;;;;5054165;28;20025;-77
2021/11/20 06:07:54;;;;;;;0.00;0.00;;;11.80;98.50;;;;;;5054027;28;20028;-77
2021/11/20 06:10:20;;;;;;;0.00;0.00;;;11.80;98.50;;;;;;5053853;28;20040;-77
2021/11/20 06:12:46;;;;;;;0.00;0.00;;;11.80;98.30;;;;;;5054061;28;20479;-77
2021/11/20 06:15:13;;;;;;;0.00;0.00;;;11.90;98.30;;;;;;5053659;28;20027;-77
2021/11/20 06:17:39;;;;;;;0.00;0.00;;;11.90;98.30;;;;;;5054104;28;20033;-77
2021/11/20 06:20:06;;;;;;;0.00;0.00;;;11.90;98.50;;;;;;5054024;28;20055;-78
2021/11/20 06:22:31;;;;;;;0.00;0.00;;;12.00;98.40;;;;;;5053687;28;20398;-76
2021/11/20 06:24:57;;;;;;;0.00;0.00;;;12.00;98.20;;;;;;5053755;28;20025;-76
2021/11/20 06:27:24;;;;;;;0.00;0.00;;;12.00;98.20;;;;;;5054582;28;20032;-79
2021/11/20 06:29:50;;;;;;;0.00;0.00;;;12.00;98.10;;;;;;5053827;28;20086;-79
2021/11/20 06:32:16;;;;;;;0.00;0.00;;;12.10;98.10;;;;;;5052181;28;20037;-77
2021/11/20 06:34:42;;;;;;;0.00;0.00;;;12.10;97.80;;;;;;5053603;28;20040;-78
2021/11/20 06:37:08;;;;;;;0.00;0.00;;;12.10;98.00;;;;;;5052227;28;20036;-78
2021/11/20 06:39:35;;;;;;;0.00;0.00;;;12.20;98.00;;;;;;5053966;28;20378;-78
2021/11/20 06:42:04;;;;;;;0.00;0.00;;;12.20;98.00;;;;;;5052770;28;20399;-78
2021/11/20 06:44:31;;;;;;;0.00;0.00;;;12.20;98.00;;;;;;5053496;28;20116;-78
2021/11/20 06:46:57;;;;;;;0.00;0.00;;;12.30;98.00;;;;;;5053302;28;20461;-78
2021/11/20 06:49:23;;;;;;;0.00;0.00;;;12.30;98.20;;;;;;5053350;28;20059;-79
2021/11/20 06:51:49;;;;;;;0.00;0.00;;;12.40;98.50;;;;;;5053651;28;20029;-78
2021/11/20 06:54:17;;;;;;;0.00;0.00;;;12.50;98.60;;;;;;5053552;28;20033;-78
2021/11/20 06:56:47;;;;;;;0.00;0.00;;;12.50;98.30;;;;;;5053391;28;20025;-77
2021/11/20 06:59:19;;;;;;;0.00;0.00;;;12.60;98.20;;;;;;5053395;28;20040;-77
2021/11/20 07:01:47;;;;;;;0.00;0.00;;;12.60;98.00;;;;;;5052252;28;20071;-78
2021/11/20 07:04:17;;;;;;;0.00;0.00;;;12.70;97.90;;;;;;5052307;28;20048;-78
2021/11/20 07:06:55;;;;;;;0.00;0.00;;;12.70;98.00;;;;;;5053213;28;20114;-76
2021/11/20 07:09:22;;;;;;;0.00;0.00;;;12.80;98.40;;;;;;5053854;28;20025;-79
2021/11/20 07:11:48;;;;;;;0.00;0.00;;;12.90;98.20;;;;;;5051942;28;20379;-78
2021/11/20 07:14:14;;;;;;;0.00;0.00;;;13.00;97.80;;;;;;5053165;28;20036;-78
2021/11/20 07:16:40;;;;;;;0.00;0.00;;;13.00;97.40;;;;;;5052441;28;20428;-78
2021/11/20 07:19:06;;;;;;;0.00;0.00;;;13.10;97.30;;;;;;5051966;28;20036;-78
2021/11/20 07:21:32;;;;;;;0.00;0.00;;;13.10;96.90;;;;;;5052778;28;20074;-78
2021/11/20 07:24:01;;;;;;;0.00;0.00;;;13.10;97.60;;;;;;5052880;28;20040;-78
2021/11/20 07:26:28;;;;;;;0.00;0.00;;;13.20;97.50;;;;;;5051875;28;20483;-77
2021/11/20 07:28:55;;;;;;;0.00;0.00;;;13.40;97.60;;;;;;5051756;28;20025;-78
2021/11/20 07:31:22;;;;;;;0.00;0.00;;;13.40;97.40;;;;;;5052729;28;20029;-78
2021/11/20 07:33:48;;;;;;;0.00;0.00;;;13.60;98.40;;;;;;5052787;28;20040;-76
2021/11/20 07:36:15;;;;;;;0.00;0.00;;;13.90;99.90;;;;;;5050055;28;20041;-80
2021/11/20 07:38:48;;;;;;;0.00;0.00;;;14.10;97.50;;;;;;5052178;28;20054;-81
2021/11/20 07:41:14;;;;;;;0.00;0.00;;;14.30;98.00;;;;;;5052178;28;20428;-80
2021/11/20 07:43:39;;;;;;;0.00;0.00;;;14.40;96.70;;;;;;5051829;28;20056;-80
2021/11/20 07:46:08;;;;;;;0.00;0.00;;;14.40;96.00;;;;;;5051892;28;20053;-80
2021/11/20 07:48:37;;;;;;;0.00;0.00;;;14.70;98.40;;;;;;5051395;28;20127;-80
2021/11/20 07:51:05;;;;;;;0.00;0.00;;;15.00;97.40;;;;;;5048726;28;20024;-83
2021/11/20 07:53:30;;;;;;;0.00;0.00;;;15.00;94.80;;;;;;5051892;28;20021;-81
2021/11/20 07:55:57;;;;;;;0.00;0.00;;;15.40;97.70;;;;;;5051740;28;20029;-81
2021/11/20 07:58:23;;;;;;;0.00;0.00;;;16.00;97.40;;;;;;5051557;28;20021;-80
2021/11/20 08:00:49;;;;;;;0.00;0.00;;;16.60;97.80;;;;;;5052053;28;20066;-79
2021/11/20 08:03:15;;;;;;;0.00;0.00;;;17.20;95.80;;;;;;5051789;28;20039;-80
2021/11/20 08:05:42;;;;;;;0.00;0.00;;;17.70;93.50;;;;;;5051640;28;20021;-79
2021/11/20 08:08:08;;;;;;;0.00;0.00;;;18.20;92.50;;;;;;5051670;28;20029;-81
2021/11/20 08:10:35;;;;;;;0.00;0.00;;;18.60;90.00;;;;;;5051998;28;20025;-80
2021/11/20 08:13:01;;;;;;;0.00;0.00;;;18.90;86.80;;;;;;5051932;28;20036;-77
2021/11/20 08:15:28;;;;;;;0.00;0.00;;;19.30;86.10;;;;;;5055481;28;20371;-77
2021/11/20 08:17:54;;;;;;;0.00;0.00;;;19.60;82.10;;;;;;5054953;28;20044;-78
2021/11/20 08:20:24;;;;;;;0.00;0.00;;;19.70;78.70;;;;;;5055809;28;20017;-76
2021/11/20 08:22:51;;;;;;;0.00;0.00;;;19.60;75.20;;;;;;5056195;28;20029;-76
2021/11/20 08:25:23;;;;;;;0.00;0.00;;;19.60;76.50;;;;;;5056056;28;20533;-76
2021/11/20 08:27:50;;;;;;;0.00;0.00;;;19.50;73.20;;;;;;5056143;28;20033;-76
2021/11/20 08:30:18;;;;;;;0.00;0.00;;;19.10;73.00;;;;;;5054359;28;20036;-76
2021/11/20 08:32:45;;;;;;;0.00;0.00;;;18.70;72.60;;;;;;5054909;28;20044;-76
2021/11/20 08:35:12;;;;;;;0.03;0.00;;;18.50;73.80;;;;;;5054556;28;20048;-76
2021/11/20 08:37:38;;;;;;;0.00;0.00;;;18.40;75.70;;;;;;5052667;28;20033;-76
2021/11/20 08:40:07;;;;;;;0.00;0.00;;;18.70;77.20;;;;;;5054595;28;20025;-76
2021/11/20 08:42:35;;;;;;;0.00;0.00;;;18.50;74.70;;;;;;5054105;28;20024;-75
2021/11/20 08:45:05;;;;;;;0.00;0.00;;;18.30;73.90;;;;;;5052650;28;20083;-76
2021/11/20 08:47:31;;;;;;;0.00;0.00;;;17.90;74.20;;;;;;5054265;28;20087;-77
2021/11/20 08:49:57;;;;;;;0.00;0.00;;;17.60;75.10;;;;;;5052037;28;20020;-77
2021/11/20 08:52:22;;;;;;;0.00;0.00;;;17.50;76.20;;;;;;5054619;28;20051;-76
2021/11/20 08:54:49;;;;;;;0.00;0.00;;;18.20;78.00;;;;;;5054000;28;20029;-76
2021/11/20 08:57:14;;;;;;;0.00;0.00;;;19.00;75.70;;;;;;5054163;28;20029;-77
2021/11/20 08:59:41;;;;;;;0.00;0.00;;;19.80;74.50;;;;;;5054249;28;20105;-77
2021/11/20 09:02:43;;;;;;;0.00;0.00;;;20.40;70.80;;;;;;5054155;28;20087;-77
2021/11/20 09:05:33;;;;;;;0.00;0.00;;;20.20;66.60;;;;;;4992366;28;20030;-77
2021/11/20 09:08:36;;;;;;;0.00;0.00;;;20.50;67.70;;;;;;5050706;28;20041;-78
2021/11/20 09:11:42;;;;;;;0.00;0.00;;;20.60;66.70;;;;;;5052012;28;20437;-76
2021/11/20 09:14:28;;;;;;;0.00;0.00;;;20.80;67.20;;;;;;5016930;28;20359;-75
2021/11/20 09:16:59;;;;;;;0.05;0.00;;;20.30;65.70;;;;;;5054964;28;20021;-76
2021/11/20 09:19:31;;;;;;;0.00;0.00;;;19.70;65.90;;;;;;5052535;28;20033;-75
2021/11/20 09:21:58;;;;;;;0.00;0.00;;;19.20;67.20;;;;;;5054792;28;20021;-77
2021/11/20 09:24:26;;;;;;;0.00;0.00;;;18.80;67.80;;;;;;5053961;28;20368;-76
2021/11/20 09:26:52;;;;;;;0.00;0.00;;;18.30;68.10;;;;;;5054701;28;20037;-77
2021/11/20 09:29:18;;;;;;;0.00;0.00;;;17.80;69.10;;;;;;5054769;28;20499;-76
2021/11/20 09:31:45;;;;;;;0.00;0.00;;;17.30;70.00;;;;;;5054926;28;20103;-76
2021/11/20 09:34:12;;;;;;;0.00;0.00;;;17.10;69.10;;;;;;5054748;28;20104;-77
2021/11/20 09:36:38;;;;;;;0.00;0.00;;;17.50;72.20;;;;;;5054216;28;20055;-76
2021/11/20 09:39:08;;;;;;;0.00;0.00;;;17.90;72.30;;;;;;5053637;28;20029;-76
2021/11/20 09:41:58;;;;;;;0.00;0.00;;;17.90;70.50;;;;;;5054454;28;20417;-76
2021/11/20 09:44:25;;;;;;;0.00;0.00;;;18.30;67.70;;;;;;5051527;28;20039;-78
2021/11/20 09:46:55;;;;;;;0.00;0.00;;;19.00;66.90;;;;;;5054299;28;20037;-77
2021/11/20 09:49:36;;;;;;;0.00;0.00;;;19.10;63.70;;;;;;5053697;28;20025;-76
2021/11/20 09:52:04;;;;;;;0.00;0.00;;;19.60;66.50;;;;;;5052107;28;20025;-77
2021/11/20 09:54:45;;;;;;;0.00;0.00;;;20.00;66.20;;;;;;5054371;28;20021;-77
2021/11/20 09:57:16;;;;;;;0.00;0.00;;;19.90;64.60;;;;;;5053455;28;20025;-77
2021/11/20 09:59:55;;;;;;;0.00;0.00;;;19.70;65.70;;;;;;5054613;28;20138;-77
2021/11/20 10:02:51;;;;;;;0.00;0.00;;;20.00;65.00;;;;;;5053717;28;20021;-76
2021/11/20 10:05:31;;;;;;;0.00;0.00;;;20.30;64.60;;;;;;5048937;28;20112;-76
2021/11/20 10:08:03;;;;;;;0.00;0.00;;;20.70;62.80;;;;;;5053946;28;20047;-77
2021/11/20 10:10:41;;;;;;;0.00;0.00;;;20.90;61.00;;;;;;5053651;28;20029;-77
2021/11/20 10:13:18;;;;;;;0.00;0.00;;;20.40;60.40;;;;;;5053500;28;20029;-77
2021/11/20 10:15:44;;;;;;;0.00;0.00;;;19.90;60.40;;;;;;5049227;28;20147;-77
2021/11/20 10:18:12;;;;;;;0.00;0.00;;;19.60;62.50;;;;;;5052722;28;20029;-76
2021/11/20 10:20:53;;;;;;;0.00;0.00;;;19.60;63.10;;;;;;5051469;28;20037;-76
2021/11/20 10:23:22;;;;;;;;;;;20.00;63.60;;;;;;5050804;28;20099;-76
2021/11/20 10:25:51;;;;;;;0.00;0.00;;;21.00;69.30;;;;;;5051271;28;19948;-76
2021/11/20 10:28:45;;;;;;;0.00;0.00;;;21.40;65.30;;;;;;5052903;28;20390;-76
2021/11/20 10:31:31;;;;;;;0.00;0.00;;;21.00;60.60;;;;;;5048531;28;20155;-76
2021/11/20 10:34:06;;;;;;;0.00;0.00;;;20.20;60.80;;;;;;5048587;28;20033;-76
2021/11/20 10:36:43;;;;;;;0.00;0.00;;;19.20;60.00;;;;;;5049867;28;20376;-76
2021/11/20 10:39:14;;;;;;;0.00;0.00;;;18.50;62.20;;;;;;5050031;28;20017;-75
2021/11/20 10:41:45;;;;;;;0.00;0.00;;;18.30;63.70;;;;;;5051921;28;20021;-76
2021/11/20 10:44:19;;;;;;;0.00;0.00;;;18.60;64.50;;;;;;5049741;28;20086;-77
2021/11/20 10:46:53;;;;;;;;;;;19.50;64.50;;;;;;5051877;28;20082;-76
2021/11/20 10:49:34;;;;;;;0.00;0.00;;;20.10;68.00;;;;;;5052195;28;19944;-76
2021/11/20 10:52:25;;;;;;;0.00;0.00;;;20.00;64.10;;;;;;5050782;28;20028;-77
2021/11/20 10:54:59;;;;;;;0.00;0.00;;;19.60;62.40;;;;;;5050342;28;20403;-77
2021/11/20 10:57:52;;;;;;;0.00;0.00;;;19.00;62.90;;;;;;5052206;28;20456;-76
2021/11/20 11:00:47;;;;;;;0.00;0.00;;;18.30;62.80;;;;;;5049528;28;20051;-76
2021/11/20 11:03:27;;;;;;;0.00;0.00;;;18.30;61.70;;;;;;5025998;28;20041;-76
2021/11/20 11:06:14;;;;;;;0.00;0.00;;;19.00;61.00;;;;;;5049890;28;20035;-76
2021/11/20 11:08:56;;;;;;;0.00;0.00;;;20.00;60.50;;;;;;5050473;28;20445;-76
2021/11/20 11:11:37;;;;;;;0.00;0.00;;;20.80;60.20;;;;;;5051356;28;20049;-77
2021/11/20 11:14:03;;;;;;;0.00;0.00;;;20.50;57.70;;;;;;5051960;28;20356;-77
2021/11/20 11:16:42;;;;;;;0.00;0.00;;;20.00;58.70;;;;;;5051861;28;20033;-77
2021/11/20 11:19:42;;;;;;;0.00;0.00;;;20.30;59.80;;;;;;5052418;28;20025;-76
2021/11/20 11:22:26;;;;;;;0.00;0.00;;;20.70;59.00;;;;;;5049677;28;20021;-78
2021/11/20 11:25:11;;;;;;;0.00;0.00;;;20.60;59.30;;;;;;5051046;28;20098;-76
2021/11/20 11:28:30;;;;;;;0.00;0.00;;;20.30;58.50;;;;;;5050759;28;20041;-77
2021/11/20 11:31:10;;;;;;;0.00;0.00;;;19.50;59.60;;;;;;4989024;28;20065;-76
2021/11/20 11:33:42;;;;;;;0.00;0.00;;;18.80;60.60;;;;;;4989149;28;20069;-76
2021/11/20 11:36:31;;;;;;;0.00;0.00;;;18.30;62.00;;;;;;5034730;28;20045;-75
2021/11/20 11:39:05;;;;;;;0.00;0.00;;;18.60;64.20;;;;;;5050675;28;20479;-77
2021/11/20 11:41:52;;;;;;;0.00;0.00;;;19.40;64.60;;;;;;5052479;28;20426;-76
2021/11/20 11:44:48;;;;;;;0.20;0.00;;;20.70;63.20;;;;;;5049627;28;20029;-77
2021/11/20 11:47:49;;;;;;;0.00;0.00;;;21.90;59.40;;;;;;5050062;28;20433;-76
2021/11/20 11:50:30;;;;;;;0.00;0.00;;;22.30;53.30;;;;;;5052824;28;20017;-76
2021/11/20 11:53:03;;;;;;;0.00;0.00;;;21.80;49.90;;;;;;5053668;28;20032;-76
2021/11/20 11:55:53;;;;;;;0.52;0.00;;;21.20;48.90;;;;;;5055781;28;20100;-76
2021/11/20 11:58:34;;;;;;;0.00;0.00;;;21.00;51.20;;;;;;5054671;28;20037;-75
2021/11/20 12:01:14;;;;;;;0.00;0.00;;;21.40;49.60;;;;;;5055998;28;20029;-75
2021/11/20 12:04:08;;;;;;;0.00;0.00;;;21.70;47.80;;;;;;5056457;28;20029;-77
2021/11/20 12:07:09;;;;;;;0.00;0.00;;;21.20;47.10;;;;;;5055579;28;20037;-79
2021/11/20 12:09:45;;;;;;;0.00;0.00;;;20.20;48.10;;;;;;5056329;28;20179;-76
2021/11/20 12:12:35;;;;;;;0.00;0.00;;;19.40;50.40;;;;;;5055456;28;20033;-76
2021/11/20 12:15:19;;;;;;;0.00;0.00;;;19.40;52.90;;;;;;5052163;28;20076;-75
2021/11/20 12:18:18;;;;;;;0.00;0.00;;;19.50;54.00;;;;;;5052888;28;20032;-74
2021/11/20 12:20:53;;;;;;;0.00;0.00;;;19.60;53.70;;;;;;5052449;28;20048;-81
2021/11/20 12:23:57;;;;;;;0.00;0.00;;;19.20;54.20;;;;;;5055107;28;20025;-80
2021/11/20 12:26:33;;;;;;;0.00;0.00;;;18.70;52.80;;;;;;4993064;28;20066;-80
2021/11/20 12:29:23;;;;;;;0.00;0.00;;;18.00;52.70;;;;;;4993179;28;20584;-80
2021/11/20 12:32:31;;;;;;;0.00;0.00;;;17.50;53.00;;;;;;5035452;28;20655;-79
2021/11/20 12:35:11;;;;;;;0.00;0.00;;;17.10;52.90;;;;;;5053606;28;20037;-80
2021/11/20 12:37:52;;;;;;;0.00;0.00;;;16.90;53.70;;;;;;5054432;28;20029;-78
2021/11/20 12:40:51;;;;;;;0.00;0.00;;;16.70;52.90;;;;;;5054815;28;20549;-78
2021/11/20 12:43:54;;;;;;;0.00;0.00;;;16.70;52.90;;;;;;5034684;28;20033;-78
2021/11/20 12:46:47;;;;;;;0.00;0.00;;;16.60;52.30;;;;;;5051790;28;20374;-78
2021/11/20 12:49:35;;;;;;;0.00;0.00;;;16.40;52.60;;;;;;5049826;28;20021;-77
2021/11/20 12:52:17;;;;;;;0.00;0.00;;;16.20;52.70;;;;;;5051596;28;20028;-77
2021/11/20 12:54:48;;;;;;;0.00;0.00;;;16.10;54.00;;;;;;5051931;28;20136;-77
2021/11/20 12:57:39;;;;;;;0.00;0.00;;;16.50;54.60;;;;;;5053822;28;20443;-77
2021/11/20 13:00:08;;;;;;;0.00;0.00;;;17.10;52.90;;;;;;5049512;28;20410;-78
2021/11/20 13:02:47;;;;;;;0.00;0.00;;;17.60;53.00;;;;;;5053491;28;20024;-76
2021/11/20 13:05:31;;;;;;;0.00;0.00;;;18.10;51.00;;;;;;5052894;28;20029;-76
2021/11/20 13:08:09;;;;;;;0.00;0.00;;;18.40;49.10;;;;;;5053429;28;20171;-77
2021/11/20 13:10:55;;;;;;;0.00;0.00;;;18.40;51.10;;;;;;5053707;28;20029;-77
2021/11/20 13:14:00;;;;;;;0.00;0.00;;;18.30;49.20;;;;;;5051033;28;20025;-75
2021/11/20 13:16:45;;;;;;;0.00;0.00;;;18.10;47.90;;;;;;5050679;28;20060;-78
2021/11/20 13:19:11;;;;;;;0.00;0.00;;;17.70;48.00;;;;;;5052664;28;20071;-74
2021/11/20 13:21:48;;;;;;;0.00;0.00;;;17.10;48.00;;;;;;5052516;28;20374;-80